Time;durP1;ratioP1;P1;durP2;ratioP2;P2;SDS_P1;SDS_P2;PMS_P1;PMS_P2;Temp;Humidity;BMP_temperature;BMP_pressure;BME280_temperature;BME280_humidity;BME280_pressure;Samples;Min_cycle;Max_cycle;Signal;HPM_P1;HPM_P2
2024/03/28 00:01:01;;;;;;;5.63;3.90;;;9.20;86.70;;;;;;5073496;28;20017;-35
2024/03/28 00:03:27;;;;;;;4.97;4.15;;;9.20;86.70;;;;;;5073488;28;20024;-34
2024/03/28 00:05:56;;;;;;;5.55;4.40;;;9.20;86.70;;;;;;5073549;28;20380;-34
2024/03/28 00:08:23;;;;;;;5.18;4.07;;;9.20;86.80;;;;;;5071979;28;20116;-35
2024/03/28 00:10:53;;;;;;;5.05;4.13;;;9.20;86.80;;;;;;5073467;28;20040;-35
2024/03/28 00:13:20;;;;;;;5.32;4.10;;;9.20;86.80;;;;;;5071831;28;20016;-36
2024/03/28 00:15:56;;;;;;;6.55;4.38;;;9.20;86.80;;;;;;5073102;28;20499;-34
2024/03/28 00:18:22;;;;;;;4.30;3.83;;;9.20;86.80;;;;;;5072992;28;20467;-34
2024/03/28 00:21:01;;;;;;;5.38;4.18;;;9.30;86.80;;;;;;5073139;28;20024;-34
2024/03/28 00:23:27;;;;;;;5.65;4.40;;;9.30;86.70;;;;;;5072834;28;20136;-33
2024/03/28 00:25:58;;;;;;;6.55;4.40;;;9.30;86.70;;;;;;5071621;28;20055;-34
2024/03/28 00:28:24;;;;;;;5.55;4.50;;;9.30;86.60;;;;;;5072787;28;20020;-34
2024/03/28 00:30:50;;;;;;;6.95;4.53;;;9.30;86.60;;;;;;5072695;28;20027;-35
2024/03/28 00:33:16;;;;;;;4.55;3.90;;;9.30;86.70;;;;;;5072703;28;20025;-35
2024/03/28 00:35:46;;;;;;;5.15;4.20;;;9.30;86.60;;;;;;5072790;28;20050;-35
2024/03/28 00:38:12;;;;;;;5.47;4.35;;;9.30;86.70;;;;;;5071149;28;20044;-36
2024/03/28 00:40:46;;;;;;;4.88;4.03;;;9.30;86.70;;;;;;5071058;28;20063;-35
2024/03/28 00:43:11;;;;;;;5.55;4.30;;;9.30;86.70;;;;;;5072524;28;20104;-35
2024/03/28 00:45:37;;;;;;;5.20;4.28;;;9.30;86.60;;;;;;5072512;28;20081;-35
2024/03/28 00:48:03;;;;;;;5.60;4.47;;;9.30;86.60;;;;;;5071084;28;20043;-33
2024/03/28 00:50:28;;;;;;;4.90;4.10;;;9.30;86.60;;;;;;5072025;28;20020;-35
2024/03/28 00:52:54;;;;;;;6.25;4.80;;;9.30;86.50;;;;;;5072308;28;20025;-35
2024/03/28 00:55:19;;;;;;;5.18;4.18;;;9.30;86.60;;;;;;5072293;28;20055;-35
2024/03/28 00:57:45;;;;;;;4.35;3.92;;;9.30;86.50;;;;;;5072252;28;20453;-34
2024/03/28 01:00:11;;;;;;;5.10;3.90;;;9.30;86.50;;;;;;5072339;28;20555;-37
2024/03/28 01:02:36;;;;;;;5.70;3.92;;;9.30;86.50;;;;;;5072262;28;20029;-36
2024/03/28 01:05:02;;;;;;;5.22;4.05;;;9.30;86.40;;;;;;5072210;28;20059;-34
2024/03/28 01:07:28;;;;;;;5.95;4.35;;;9.30;86.40;;;;;;5072259;28;20122;-35
2024/03/28 01:09:53;;;;;;;4.50;4.10;;;9.30;86.40;;;;;;5071936;28;20099;-34
2024/03/28 01:12:19;;;;;;;5.25;4.10;;;9.30;86.40;;;;;;5072022;28;20096;-35
2024/03/28 01:14:45;;;;;;;4.57;4.13;;;9.30;86.40;;;;;;5071871;28;20108;-35
2024/03/28 01:17:10;;;;;;;4.40;3.85;;;9.30;86.30;;;;;;5070526;28;20064;-34
2024/03/28 01:19:37;;;;;;;5.22;4.00;;;9.30;86.30;;;;;;5070354;28;20447;-35
2024/03/28 01:22:02;;;;;;;5.07;3.92;;;9.40;86.30;;;;;;5072182;28;20081;-35
2024/03/28 01:24:28;;;;;;;6.10;4.05;;;9.30;86.20;;;;;;5071655;28;20553;-35
2024/03/28 01:26:54;;;;;;;4.68;3.97;;;9.30;86.30;;;;;;5070461;28;20496;-35
2024/03/28 01:29:19;;;;;;;4.80;4.10;;;9.30;86.40;;;;;;5071825;28;20107;-36
2024/03/28 01:31:45;;;;;;;4.72;4.07;;;9.30;86.40;;;;;;5071830;28;20016;-34
2024/03/28 01:34:10;;;;;;;4.80;4.22;;;9.30;86.40;;;;;;5071883;28;20044;-35
2024/03/28 01:36:36;;;;;;;4.53;4.03;;;9.30;86.40;;;;;;5071470;28;20040;-33
2024/03/28 01:39:02;;;;;;;5.85;4.28;;;9.20;86.30;;;;;;5070211;28;20489;-35
2024/03/28 01:41:27;;;;;;;5.00;4.50;;;9.30;86.40;;;;;;5071549;28;20028;-32
2024/03/28 01:43:53;;;;;;;4.90;4.40;;;9.20;86.40;;;;;;5070822;28;20025;-34
2024/03/28 01:46:21;;;;;;;4.80;4.30;;;9.20;86.40;;;;;;5071782;28;20100;-35
2024/03/28 01:48:48;;;;;;;6.70;4.60;;;9.20;86.40;;;;;;5071471;28;20020;-34
2024/03/28 01:51:14;;;;;;;5.00;4.07;;;9.20;86.40;;;;;;5071627;28;20017;-34
2024/03/28 01:53:40;;;;;;;4.50;4.10;;;9.20;86.30;;;;;;5071472;28;20024;-35
2024/03/28 01:56:06;;;;;;;5.10;4.03;;;9.20;86.40;;;;;;5071487;28;20027;-34
2024/03/28 01:58:33;;;;;;;5.05;3.65;;;9.20;86.40;;;;;;5071522;28;20044;-36
2024/03/28 02:00:59;;;;;;;4.53;3.90;;;9.20;86.40;;;;;;5071406;28;20052;-34
2024/03/28 02:03:25;;;;;;;4.75;3.92;;;9.20;86.30;;;;;;5071195;28;20116;-33
2024/03/28 02:05:51;;;;;;;5.00;4.18;;;9.20;86.40;;;;;;5071192;28;20078;-36
2024/03/28 02:08:17;;;;;;;4.65;4.18;;;9.20;86.30;;;;;;5071091;28;20469;-34
2024/03/28 02:10:44;;;;;;;4.45;3.72;;;9.20;86.20;;;;;;5071118;28;20028;-34
2024/03/28 02:13:11;;;;;;;4.80;3.72;;;9.20;86.30;;;;;;5071331;28;20017;-35
2024/03/28 02:15:37;;;;;;;4.03;3.50;;;9.10;86.20;;;;;;5071022;28;20024;-33
2024/03/28 02:18:03;;;;;;;4.35;3.42;;;9.10;86.30;;;;;;5071476;28;20016;-35
2024/03/28 02:20:29;;;;;;;4.47;3.38;;;9.10;86.20;;;;;;5069875;28;20487;-35
2024/03/28 02:22:54;;;;;;;3.72;3.10;;;9.10;86.20;;;;;;5071175;28;20126;-34
2024/03/28 02:25:20;;;;;;;3.67;3.38;;;9.10;86.20;;;;;;5071111;28;20029;-35
2024/03/28 02:27:45;;;;;;;4.15;3.33;;;9.10;86.10;;;;;;5071340;28;20107;-34
2024/03/28 02:30:12;;;;;;;4.57;3.08;;;9.10;86.10;;;;;;5070849;28;20020;-34
2024/03/28 02:32:38;;;;;;;3.60;3.05;;;9.10;86.10;;;;;;5070927;28;20021;-34
2024/03/28 02:35:05;;;;;;;3.92;3.30;;;9.10;86.00;;;;;;5071142;28;20103;-35
2024/03/28 02:37:31;;;;;;;3.95;3.28;;;9.20;86.10;;;;;;5070903;28;20473;-34
2024/03/28 02:39:57;;;;;;;4.13;3.10;;;9.10;86.00;;;;;;5070793;28;20110;-34
2024/03/28 02:42:23;;;;;;;3.35;3.05;;;9.20;85.90;;;;;;5070881;28;20025;-35
2024/03/28 02:44:49;;;;;;;4.28;3.25;;;9.20;85.90;;;;;;5069575;28;20025;-33
2024/03/28 02:47:14;;;;;;;3.35;2.95;;;9.20;85.90;;;;;;5070891;28;20020;-34
2024/03/28 02:49:40;;;;;;;3.58;2.85;;;9.20;85.80;;;;;;5070847;28;20028;-35
2024/03/28 02:52:06;;;;;;;3.65;2.95;;;9.20;85.80;;;;;;5070878;28;20024;-34
2024/03/28 02:54:32;;;;;;;3.90;3.10;;;9.20;85.80;;;;;;5072927;28;20382;-35
2024/03/28 02:57:01;;;;;;;3.80;3.28;;;9.20;85.80;;;;;;5074612;28;20024;-35
2024/03/28 02:59:27;;;;;;;3.92;3.10;;;9.20;85.70;;;;;;5073164;28;20024;-34
2024/03/28 03:01:53;;;;;;;5.85;3.30;;;9.20;85.70;;;;;;5074423;28;20031;-34
2024/03/28 03:04:19;;;;;;;3.83;3.08;;;9.20;85.70;;;;;;5074425;28;20025;-35
2024/03/28 03:06:44;;;;;;;3.60;3.20;;;9.20;85.70;;;;;;5074685;28;20111;-34
2024/03/28 03:09:10;;;;;;;3.30;2.88;;;9.20;85.70;;;;;;5074256;28;20040;-34
2024/03/28 03:11:35;;;;;;;3.40;3.10;;;9.20;85.70;;;;;;5074259;28;20021;-34
2024/03/28 03:14:01;;;;;;;3.78;3.28;;;9.20;85.70;;;;;;5074215;28;20103;-35
2024/03/28 03:16:26;;;;;;;4.05;3.25;;;9.20;85.70;;;;;;5074128;28;20020;-35
2024/03/28 03:18:52;;;;;;;4.65;3.10;;;9.20;85.80;;;;;;5073995;28;20028;-35
2024/03/28 03:21:18;;;;;;;3.45;3.00;;;9.20;85.70;;;;;;5073997;28;20028;-33
2024/03/28 03:23:49;;;;;;;3.92;3.35;;;9.20;85.70;;;;;;5074432;28;20111;-34
2024/03/28 03:26:24;;;;;;;4.10;3.33;;;9.20;85.70;;;;;;5074064;28;20589;-34
2024/03/28 03:34:36;;;;;;;4.55;3.05;;;9.20;85.70;;;;;;5073976;28;20036;-34
2024/03/28 03:37:03;;;;;;;3.88;3.20;;;9.20;85.70;;;;;;5073782;28;20524;-35
2024/03/28 03:39:29;;;;;;;4.03;3.00;;;9.20;85.60;;;;;;5072362;28;20469;-35
2024/03/28 03:41:55;;;;;;;3.67;2.90;;;9.20;85.60;;;;;;5073717;28;20016;-35
2024/03/28 03:44:21;;;;;;;3.17;2.88;;;9.20;85.50;;;;;;5073595;28;20028;-35
2024/03/28 03:46:47;;;;;;;4.32;2.88;;;9.20;85.50;;;;;;5073631;28;20108;-34
2024/03/28 03:49:12;;;;;;;3.70;2.65;;;9.20;85.60;;;;;;5072065;28;20036;-36
2024/03/28 03:51:38;;;;;;;3.88;2.72;;;9.20;85.70;;;;;;5073617;28;20523;-34
2024/03/28 03:54:04;;;;;;;4.32;2.72;;;9.10;85.50;;;;;;5073609;28;20028;-34
2024/03/28 03:56:30;;;;;;;3.30;2.90;;;9.10;85.50;;;;;;5073885;28;20025;-37
2024/03/28 03:58:56;;;;;;;4.07;2.70;;;9.10;85.50;;;;;;5073048;28;20190;-34
2024/03/28 04:01:21;;;;;;;3.35;2.53;;;9.20;85.60;;;;;;5073299;28;20052;-35
2024/03/28 04:03:48;;;;;;;2.88;2.65;;;9.10;85.60;;;;;;5073570;28;20095;-34
2024/03/28 04:06:15;;;;;;;3.10;2.80;;;9.00;85.60;;;;;;5072718;28;20066;-34
2024/03/28 04:08:40;;;;;;;3.83;2.53;;;9.00;85.60;;;;;;5073528;28;20390;-34
2024/03/28 04:11:06;;;;;;;4.15;2.70;;;8.90;85.70;;;;;;5073167;28;20100;-34
2024/03/28 04:13:32;;;;;;;3.40;3.00;;;8.90;85.80;;;;;;5073203;28;20024;-35
2024/03/28 04:15:57;;;;;;;5.13;2.83;;;8.80;85.80;;;;;;5073011;28;20059;-35
2024/03/28 04:18:23;;;;;;;2.95;2.63;;;8.80;85.90;;;;;;5071748;28;20092;-35
2024/03/28 04:20:49;;;;;;;3.70;2.80;;;8.80;85.90;;;;;;5073202;28;20040;-34
2024/03/28 04:23:14;;;;;;;5.00;2.80;;;8.70;85.90;;;;;;5073089;28;20020;-35
2024/03/28 04:25:40;;;;;;;3.28;2.55;;;8.70;86.00;;;;;;5072767;28;20032;-36
2024/03/28 04:28:05;;;;;;;4.63;2.80;;;8.70;86.00;;;;;;5073207;28;20024;-35
2024/03/28 04:30:33;;;;;;;2.90;2.60;;;8.60;86.00;;;;;;5072577;28;20032;-35
2024/03/28 04:32:59;;;;;;;4.20;2.95;;;8.60;86.00;;;;;;5072681;28;20017;-34
2024/03/28 04:35:25;;;;;;;4.00;2.95;;;8.60;86.00;;;;;;5072844;28;20020;-31
2024/03/28 04:37:51;;;;;;;4.68;3.15;;;8.60;86.00;;;;;;5071028;28;20496;-29
2024/03/28 04:40:17;;;;;;;4.63;3.20;;;8.60;86.10;;;;;;5072329;28;20020;-30
2024/03/28 04:42:50;;;;;;;4.35;3.22;;;8.50;86.10;;;;;;5072391;28;20496;-30
2024/03/28 04:45:19;;;;;;;4.88;3.22;;;8.50;86.20;;;;;;5072286;28;20037;-44
2024/03/28 04:47:47;;;;;;;4.47;3.90;;;8.50;86.20;;;;;;5072299;28;20031;-34
2024/03/28 04:50:13;;;;;;;5.40;3.45;;;8.50;86.20;;;;;;5072462;28;20029;-31
2024/03/28 04:52:39;;;;;;;4.38;3.55;;;8.50;86.20;;;;;;5072380;28;20433;-31
2024/03/28 04:55:05;;;;;;;5.88;3.97;;;8.40;86.20;;;;;;5072426;28;20096;-32
2024/03/28 04:57:31;;;;;;;4.40;3.53;;;8.40;86.30;;;;;;5072058;28;20055;-33
2024/03/28 04:59:57;;;;;;;5.35;3.75;;;8.40;86.30;;;;;;5070668;28;20052;-31
2024/03/28 05:02:23;;;;;;;5.57;4.13;;;8.40;86.40;;;;;;5070623;28;20028;-30
2024/03/28 05:04:48;;;;;;;5.13;4.05;;;8.40;86.40;;;;;;5072047;28;20028;-30
2024/03/28 05:07:15;;;;;;;5.82;4.05;;;8.40;86.40;;;;;;5072314;28;20452;-31
2024/03/28 05:09:40;;;;;;;6.13;4.07;;;8.40;86.50;;;;;;5071655;28;20065;-30
2024/03/28 05:12:06;;;;;;;4.25;3.67;;;8.30;86.50;;;;;;5071932;28;20029;-34
2024/03/28 05:14:32;;;;;;;5.80;4.35;;;8.30;87.30;;;;;;5071937;28;20024;-31
2024/03/28 05:16:59;;;;;;;7.15;3.97;;;8.30;86.80;;;;;;5070040;28;20025;-35
2024/03/28 05:19:25;;;;;;;4.90;3.67;;;8.30;86.80;;;;;;5071303;28;20082;-34
2024/03/28 05:21:51;;;;;;;5.65;3.78;;;8.20;86.80;;;;;;5071647;28;20035;-32
2024/03/28 05:24:17;;;;;;;5.50;4.13;;;8.20;86.80;;;;;;5071801;28;20033;-35
2024/03/28 05:26:42;;;;;;;7.10;3.90;;;8.20;86.80;;;;;;5071752;28;20047;-31
2024/03/28 05:29:08;;;;;;;5.82;4.32;;;8.20;86.80;;;;;;5071521;28;20033;-33
2024/03/28 05:31:33;;;;;;;5.07;4.20;;;8.20;86.90;;;;;;5071611;28;20475;-34
2024/03/28 05:33:59;;;;;;;4.93;3.88;;;8.10;86.80;;;;;;5071560;28;20095;-29
2024/03/28 05:36:24;;;;;;;5.93;4.03;;;8.10;86.90;;;;;;5071534;28;20244;-32
2024/03/28 05:38:50;;;;;;;5.43;3.95;;;8.10;86.90;;;;;;5071574;28;20025;-32
2024/03/28 05:41:16;;;;;;;5.85;4.18;;;8.20;87.00;;;;;;5071529;28;20492;-30
2024/03/28 05:43:43;;;;;;;5.00;3.60;;;8.10;87.00;;;;;;5071404;28;20028;-30
2024/03/28 05:46:09;;;;;;;4.35;3.42;;;8.10;87.00;;;;;;5071381;28;20024;-30
2024/03/28 05:48:34;;;;;;;5.22;3.88;;;8.10;87.00;;;;;;5070242;28;20465;-40
2024/03/28 05:51:00;;;;;;;4.75;3.95;;;8.10;87.00;;;;;;5071212;28;20028;-31
2024/03/28 05:53:26;;;;;;;5.50;3.85;;;8.10;87.00;;;;;;5071373;28;20484;-37
2024/03/28 05:55:51;;;;;;;4.55;3.78;;;8.10;86.90;;;;;;5069901;28;20036;-30
2024/03/28 05:58:17;;;;;;;6.43;3.67;;;8.10;86.90;;;;;;5071263;28;20021;-30
2024/03/28 06:00:42;;;;;;;4.75;3.60;;;8.10;86.90;;;;;;5071231;28;20032;-46
2024/03/28 06:03:08;;;;;;;4.80;3.70;;;8.10;87.00;;;;;;5071093;28;20025;-34
2024/03/28 06:05:33;;;;;;;4.13;3.20;;;8.10;86.90;;;;;;5071111;28;20488;-31
2024/03/28 06:07:59;;;;;;;5.47;3.55;;;8.10;87.00;;;;;;5071271;28;20060;-31
2024/03/28 06:10:25;;;;;;;7.07;3.40;;;8.10;86.90;;;;;;5071133;28;20016;-33
2024/03/28 06:12:51;;;;;;;3.92;3.50;;;8.20;86.90;;;;;;5071616;28;20019;-39
2024/03/28 06:15:17;;;;;;;4.38;3.58;;;8.20;86.80;;;;;;5071151;28;20021;-30
2024/03/28 06:17:43;;;;;;;3.88;3.15;;;8.30;86.80;;;;;;5071182;28;20086;-36
2024/03/28 06:20:10;;;;;;;5.82;3.65;;;8.40;86.60;;;;;;5070965;28;20029;-33
2024/03/28 06:22:35;;;;;;;5.13;3.50;;;8.40;86.50;;;;;;5071478;28;20028;-35
2024/03/28 06:25:01;;;;;;;3.97;2.47;;;8.40;86.50;;;;;;5071297;28;20070;-31
2024/03/28 06:27:27;;;;;;;3.78;2.88;;;8.50;86.80;;;;;;5071470;28;20074;-37
2024/03/28 06:29:53;;;;;;;3.65;2.53;;;8.50;87.00;;;;;;5073366;28;20027;-36
2024/03/28 06:32:24;;;;;;;4.03;2.95;;;8.50;87.80;;;;;;5074911;28;20407;-33
2024/03/28 06:35:08;;;;;;;4.90;3.25;;;8.60;88.30;;;;;;5074999;28;20476;-33
2024/03/28 06:37:34;;;;;;;4.55;3.08;;;8.60;88.10;;;;;;5074948;28;20044;-30
2024/03/28 06:39:59;;;;;;;3.85;2.92;;;8.70;88.40;;;;;;5074719;28;20024;-32
2024/03/28 06:42:25;;;;;;;5.15;3.50;;;8.70;88.40;;;;;;5074791;28;20028;-34
2024/03/28 06:44:52;;;;;;;3.88;3.05;;;8.70;88.90;;;;;;5074715;28;20025;-29
2024/03/28 06:47:18;;;;;;;3.30;2.90;;;8.70;89.40;;;;;;5074654;28;20017;-31
2024/03/28 06:49:43;;;;;;;3.92;3.20;;;8.70;90.00;;;;;;5074444;28;20024;-37
2024/03/28 06:52:09;;;;;;;4.88;3.60;;;8.70;90.00;;;;;;5074523;28;20104;-32
2024/03/28 06:54:35;;;;;;;4.25;3.20;;;8.70;89.60;;;;;;5074867;28;20461;-32
2024/03/28 06:57:01;;;;;;;4.95;3.28;;;8.70;89.20;;;;;;5074768;28;20473;-36
2024/03/28 06:59:26;;;;;;;4.32;3.10;;;8.70;88.90;;;;;;5074366;28;20035;-36
2024/03/28 07:01:53;;;;;;;3.38;3.03;;;8.70;89.10;;;;;;5074427;28;20024;-34
2024/03/28 07:04:19;;;;;;;5.90;3.42;;;8.70;89.30;;;;;;5074164;28;20029;-32
2024/03/28 07:06:44;;;;;;;4.72;3.25;;;8.80;89.60;;;;;;5074022;28;20465;-32
2024/03/28 07:09:11;;;;;;;4.18;3.22;;;8.90;89.60;;;;;;5074108;28;20024;-29
2024/03/28 07:11:36;;;;;;;4.28;3.47;;;9.00;89.30;;;;;;5074390;28;20027;-30
2024/03/28 07:14:02;;;;;;;4.35;3.10;;;9.10;88.70;;;;;;5074120;28;20025;-33
2024/03/28 07:16:28;;;;;;;4.82;3.20;;;9.20;88.20;;;;;;5074183;28;20073;-31
2024/03/28 07:18:55;;;;;;;4.13;3.10;;;9.30;87.80;;;;;;5072645;28;20025;-29
2024/03/28 07:21:21;;;;;;;6.25;3.00;;;9.40;87.50;;;;;;5074148;28;20025;-33
2024/03/28 07:23:47;;;;;;;3.15;2.72;;;9.50;87.20;;;;;;5074401;28;20017;-32
2024/03/28 07:26:13;;;;;;;3.42;2.70;;;9.50;87.00;;;;;;5074059;28;20465;-30
2024/03/28 07:28:38;;;;;;;2.95;2.65;;;9.60;87.50;;;;;;5073886;28;20060;-34
2024/03/28 07:31:04;;;;;;;4.82;3.00;;;9.60;87.70;;;;;;5072504;28;20024;-34
2024/03/28 07:33:30;;;;;;;3.47;2.63;;;9.70;87.50;;;;;;5073881;28;20389;-31
2024/03/28 07:35:55;;;;;;;4.13;2.78;;;9.80;87.50;;;;;;5073965;28;20032;-31
2024/03/28 07:38:21;;;;;;;4.95;2.58;;;9.90;87.70;;;;;;5073651;28;20076;-32
2024/03/28 07:40:51;;;;;;;3.38;2.58;;;9.90;87.70;;;;;;5072653;28;20135;-36
2024/03/28 07:43:17;;;;;;;4.05;2.40;;;10.00;87.60;;;;;;5073402;28;20080;-35
2024/03/28 07:45:47;;;;;;;3.33;2.47;;;10.10;87.80;;;;;;5073567;28;20035;-32
2024/03/28 07:48:13;;;;;;;4.15;2.70;;;10.20;87.80;;;;;;5074001;28;20107;-30
2024/03/28 07:50:39;;;;;;;3.08;2.28;;;10.20;87.20;;;;;;5073375;28;20119;-38
2024/03/28 07:53:05;;;;;;;2.85;2.33;;;10.20;86.90;;;;;;5073528;28;20381;-30
2024/03/28 07:55:30;;;;;;;3.45;2.53;;;10.30;86.50;;;;;;5073373;28;20484;-30
2024/03/28 07:57:56;;;;;;;3.95;2.42;;;10.30;86.60;;;;;;5073366;28;20021;-31
2024/03/28 08:00:22;;;;;;;4.63;2.80;;;10.30;86.40;;;;;;5072826;28;20079;-33
2024/03/28 08:02:49;;;;;;;3.70;2.63;;;10.20;86.50;;;;;;5070528;28;20060;-31
2024/03/28 08:05:16;;;;;;;3.88;2.40;;;10.20;86.40;;;;;;5072121;28;20033;-30
2024/03/28 08:07:42;;;;;;;3.67;2.80;;;10.20;86.20;;;;;;5070612;28;20067;-31
2024/03/28 08:10:09;;;;;;;3.63;2.70;;;10.20;86.10;;;;;;5072018;28;20404;-32
2024/03/28 08:12:35;;;;;;;2.55;2.35;;;10.20;86.00;;;;;;5071756;28;20028;-33
2024/03/28 08:15:02;;;;;;;2.63;2.42;;;10.20;85.80;;;;;;5071373;28;20057;-32
2024/03/28 08:17:28;;;;;;;2.58;2.22;;;10.20;85.50;;;;;;5073394;28;20063;-37
2024/03/28 08:19:54;;;;;;;4.50;2.25;;;10.20;85.90;;;;;;5073148;28;20032;-35
2024/03/28 08:22:21;;;;;;;2.60;2.10;;;10.20;86.00;;;;;;5073141;28;20124;-33
2024/03/28 08:24:47;;;;;;;2.40;1.77;;;10.20;85.90;;;;;;5072538;28;20032;-36
2024/03/28 08:27:13;;;;;;;2.50;1.88;;;10.20;85.60;;;;;;5073190;28;20099;-35
2024/03/28 08:29:39;;;;;;;1.83;1.70;;;10.20;85.20;;;;;;5072611;28;20124;-31
2024/03/28 08:32:05;;;;;;;3.65;1.98;;;10.30;85.00;;;;;;5073076;28;20048;-32
2024/03/28 08:34:31;;;;;;;2.88;1.80;;;10.30;85.20;;;;;;5072703;28;20059;-40
2024/03/28 08:36:57;;;;;;;2.45;1.77;;;10.20;85.00;;;;;;5072383;28;20040;-37
2024/03/28 08:39:24;;;;;;;2.67;1.88;;;10.20;85.00;;;;;;5072720;28;20033;-32
2024/03/28 08:41:52;;;;;;;3.83;2.28;;;10.10;84.90;;;;;;5072715;28;20055;-32
2024/03/28 08:44:19;;;;;;;2.15;1.80;;;10.10;85.50;;;;;;5072650;28;20488;-31
2024/03/28 08:46:44;;;;;;;2.17;1.95;;;10.00;85.50;;;;;;5072465;28;20146;-35
2024/03/28 08:49:10;;;;;;;2.83;2.20;;;9.90;85.60;;;;;;5072149;28;20050;-34
2024/03/28 08:51:36;;;;;;;2.92;1.92;;;9.90;85.90;;;;;;5072161;28;20021;-33
2024/03/28 08:54:05;;;;;;;2.35;1.92;;;9.80;85.90;;;;;;5072806;28;20479;-38
2024/03/28 08:56:31;;;;;;;3.72;1.90;;;9.80;86.00;;;;;;5072367;28;20028;-33
2024/03/28 08:58:58;;;;;;;2.17;1.90;;;9.80;86.00;;;;;;5072719;28;20031;-30
2024/03/28 09:01:24;;;;;;;1.88;1.60;;;9.70;86.40;;;;;;5072321;28;20033;-30
2024/03/28 09:03:52;;;;;;;2.47;1.85;;;9.80;86.50;;;;;;5072704;28;20066;-35
2024/03/28 09:06:19;;;;;;;2.60;1.83;;;9.70;86.60;;;;;;5072650;28;20036;-33
2024/03/28 09:08:45;;;;;;;2.42;1.92;;;9.70;86.60;;;;;;5072248;28;20392;-31
2024/03/28 09:11:12;;;;;;;1.73;1.50;;;9.70;86.60;;;;;;5070808;28;20017;-30
2024/03/28 09:13:38;;;;;;;2.53;1.50;;;9.80;86.50;;;;;;5071984;28;20024;-30
2024/03/28 09:16:05;;;;;;;1.80;1.52;;;9.80;86.50;;;;;;5072207;28;20078;-30
2024/03/28 09:18:31;;;;;;;2.85;1.80;;;9.80;86.40;;;;;;5070436;28;20043;-32
2024/03/28 09:20:57;;;;;;;1.85;1.40;;;9.80;86.40;;;;;;5071895;28;20025;-33
2024/03/28 09:23:22;;;;;;;2.50;1.60;;;9.90;86.50;;;;;;5071780;28;20443;-31
2024/03/28 09:25:48;;;;;;;1.55;1.45;;;9.90;86.50;;;;;;5071809;28;20097;-30
2024/03/28 09:28:14;;;;;;;1.40;1.30;;;9.80;86.50;;;;;;5071683;28;20104;-29
2024/03/28 09:30:39;;;;;;;3.17;1.70;;;9.80;86.70;;;;;;5071981;28;20025;-35
2024/03/28 09:33:05;;;;;;;2.58;1.60;;;9.80;86.90;;;;;;5072434;28;20030;-30
2024/03/28 09:35:30;;;;;;;1.90;1.50;;;9.80;87.00;;;;;;5072434;28;20407;-29
2024/03/28 09:37:56;;;;;;;2.00;1.80;;;9.80;87.00;;;;;;5070604;28;20405;-36
2024/03/28 09:40:22;;;;;;;2.03;1.58;;;9.70;87.20;;;;;;5071817;28;20036;-29
2024/03/28 09:42:48;;;;;;;1.63;1.52;;;9.70;87.20;;;;;;5071833;28;20035;-32
2024/03/28 09:45:14;;;;;;;1.50;1.40;;;9.70;87.40;;;;;;5072112;28;20483;-32
2024/03/28 09:47:41;;;;;;;2.95;1.40;;;9.60;87.60;;;;;;5071828;28;20099;-32
2024/03/28 09:50:11;;;;;;;2.03;1.45;;;9.70;88.00;;;;;;5071931;28;20436;-34
2024/03/28 09:52:38;;;;;;;2.08;1.65;;;9.70;88.00;;;;;;5072144;28;20027;-50
2024/03/28 09:55:07;;;;;;;1.98;1.50;;;9.70;88.00;;;;;;5072118;28;20377;-29
2024/03/28 09:57:33;;;;;;;2.03;1.50;;;9.70;88.10;;;;;;5072341;28;20079;-33
2024/03/28 09:59:59;;;;;;;1.70;1.50;;;9.70;88.10;;;;;;5072131;28;20116;-29
2024/03/28 10:02:49;;;;;;;1.60;1.25;;;9.70;88.20;;;;;;5071995;28;20504;-30
2024/03/28 10:05:14;;;;;;;2.78;1.60;;;9.70;88.40;;;;;;5071117;28;20056;-29
2024/03/28 10:07:40;;;;;;;2.50;1.50;;;9.60;88.50;;;;;;5071922;28;20033;-29
2024/03/28 10:10:16;;;;;;;2.25;1.70;;;9.70;88.70;;;;;;5071603;28;20111;-29
2024/03/28 10:12:56;;;;;;;1.75;1.65;;;9.70;88.80;;;;;;5071953;28;20032;-31
2024/03/28 10:15:22;;;;;;;2.40;1.38;;;9.60;88.90;;;;;;5072157;28;20580;-29
2024/03/28 10:18:00;;;;;;;2.80;1.80;;;9.60;88.90;;;;;;5071795;28;20421;-30
2024/03/28 10:20:27;;;;;;;2.60;1.58;;;9.70;88.90;;;;;;5071694;28;20036;-30
2024/03/28 10:22:52;;;;;;;2.53;1.50;;;9.70;88.90;;;;;;5071705;28;20380;-29
2024/03/28 10:25:23;;;;;;;2.83;1.50;;;9.70;89.00;;;;;;5071947;28;20112;-28
2024/03/28 10:27:49;;;;;;;2.25;1.67;;;9.70;89.00;;;;;;5071841;28;20040;-30
2024/03/28 10:30:23;;;;;;;2.15;1.50;;;9.70;89.10;;;;;;5071587;28;20031;-30
2024/03/28 10:33:04;;;;;;;4.13;1.80;;;9.70;89.20;;;;;;5071903;28;20029;-29
2024/03/28 10:35:35;;;;;;;1.60;1.50;;;9.60;89.20;;;;;;5071410;28;20024;-30
2024/03/28 10:38:01;;;;;;;2.92;1.70;;;9.60;89.30;;;;;;5071349;28;20041;-30
2024/03/28 10:40:28;;;;;;;1.90;1.52;;;9.60;89.60;;;;;;5071424;28;20036;-33
2024/03/28 10:42:59;;;;;;;2.25;1.60;;;9.50;89.70;;;;;;5071846;28;20533;-30
2024/03/28 10:45:27;;;;;;;1.73;1.40;;;9.40;89.90;;;;;;5071791;28;20441;-30
2024/03/28 10:47:53;;;;;;;1.85;1.40;;;9.40;90.00;;;;;;5071982;28;20473;-30
2024/03/28 10:50:27;;;;;;;1.20;1.10;;;9.30;90.10;;;;;;5071472;28;20068;-31
2024/03/28 10:52:55;;;;;;;2.13;1.50;;;9.30;90.10;;;;;;5071513;28;20041;-29
2024/03/28 10:55:34;;;;;;;1.23;1.13;;;9.30;90.10;;;;;;5070209;28;20621;-29
2024/03/28 10:58:03;;;;;;;1.30;1.20;;;9.30;90.10;;;;;;5071557;28;20024;-33
2024/03/28 11:00:29;;;;;;;1.45;1.10;;;9.30;90.20;;;;;;5071573;28;20040;-30
2024/03/28 11:02:56;;;;;;;1.75;1.15;;;9.30;90.20;;;;;;5071332;28;20449;-31
2024/03/28 11:05:24;;;;;;;1.40;1.23;;;9.30;90.10;;;;;;5071609;28;20025;-29
2024/03/28 11:07:51;;;;;;;1.20;1.10;;;9.30;90.10;;;;;;5070080;28;20052;-29
2024/03/28 11:10:18;;;;;;;1.92;1.13;;;9.30;90.10;;;;;;5071203;28;20546;-29
2024/03/28 11:12:44;;;;;;;4.38;1.40;;;9.40;90.20;;;;;;5071291;28;20028;-28
2024/03/28 11:15:18;;;;;;;1.73;1.35;;;9.40;90.10;;;;;;5071183;28;20021;-28
2024/03/28 11:17:45;;;;;;;1.23;1.13;;;9.50;90.10;;;;;;5074559;28;20033;-29
2024/03/28 11:20:19;;;;;;;2.33;1.38;;;9.60;90.10;;;;;;5074453;28;20032;-40
2024/03/28 11:22:45;;;;;;;1.35;1.25;;;9.70;90.00;;;;;;5075009;28;20032;-35
2024/03/28 11:25:31;;;;;;;2.25;1.50;;;9.80;90.00;;;;;;5074564;28;20032;-29
2024/03/28 11:28:07;;;;;;;3.17;1.60;;;9.90;89.80;;;;;;5074637;28;20025;-38
2024/03/28 11:30:34;;;;;;;3.45;1.80;;;9.90;89.60;;;;;;5074437;28;20066;-37
2024/03/28 11:33:11;;;;;;;2.25;1.80;;;10.00;89.70;;;;;;5074624;28;20115;-36
2024/03/28 11:35:41;;;;;;;2.58;1.88;;;9.90;89.60;;;;;;5074832;28;20115;-31
2024/03/28 11:38:08;;;;;;;2.97;1.75;;;9.90;89.80;;;;;;5074255;28;20041;-30
2024/03/28 11:40:35;;;;;;;2.70;1.90;;;9.90;89.90;;;;;;5074339;28;20039;-31
2024/03/28 11:43:15;;;;;;;3.45;1.92;;;10.00;89.90;;;;;;5074110;28;20043;-30
2024/03/28 11:46:06;;;;;;;5.32;2.20;;;10.10;89.90;;;;;;5072889;28;20040;-32
2024/03/28 11:48:38;;;;;;;2.22;2.00;;;10.10;89.70;;;;;;5074272;28;20064;-36
2024/03/28 11:51:05;;;;;;;6.43;2.50;;;10.20;89.70;;;;;;5074166;28;20024;-35
2024/03/28 11:53:34;;;;;;;3.15;2.15;;;10.30;89.50;;;;;;5074312;28;20039;-31
2024/03/28 11:56:00;;;;;;;4.00;2.17;;;10.30;89.30;;;;;;5074207;28;20104;-30
2024/03/28 11:58:28;;;;;;;4.93;2.30;;;10.40;89.40;;;;;;5074153;28;20056;-30
2024/03/28 12:00:59;;;;;;;6.55;2.65;;;10.50;89.20;;;;;;5074067;28;20033;-29
2024/03/28 12:03:25;;;;;;;4.78;2.42;;;10.50;88.90;;;;;;5073851;28;20031;-28
2024/03/28 12:05:52;;;;;;;5.82;2.30;;;10.60;88.50;;;;;;5074301;28;20107;-28
2024/03/28 12:08:25;;;;;;;4.82;2.70;;;10.60;88.30;;;;;;5073925;28;20044;-33
2024/03/28 12:10:51;;;;;;;4.53;3.20;;;10.70;88.30;;;;;;5073878;28;20512;-32
2024/03/28 12:13:17;;;;;;;6.30;3.20;;;10.80;87.80;;;;;;5074002;28;20028;-30
2024/03/28 12:15:44;;;;;;;5.65;2.90;;;10.90;86.50;;;;;;5073850;28;20508;-30
2024/03/28 12:18:10;;;;;;;7.03;2.80;;;10.90;86.20;;;;;;5073650;28;20040;-30
2024/03/28 12:20:39;;;;;;;4.85;2.72;;;11.00;86.10;;;;;;5073444;28;20078;-29
2024/03/28 12:23:05;;;;;;;4.63;2.60;;;11.10;85.90;;;;;;5073557;28;20039;-29
2024/03/28 12:25:31;;;;;;;6.53;2.80;;;11.20;85.00;;;;;;5073445;28;20031;-31
2024/03/28 12:27:57;;;;;;;6.72;2.88;;;11.30;83.50;;;;;;5072945;28;20032;-29
2024/03/28 12:30:23;;;;;;;7.18;3.00;;;11.40;83.80;;;;;;5073259;28;20042;-30
2024/03/28 12:33:02;;;;;;;4.93;2.90;;;11.40;83.00;;;;;;5073465;28;20097;-29
2024/03/28 12:35:29;;;;;;;8.60;3.28;;;11.60;82.80;;;;;;5073399;28;20040;-31
2024/03/28 12:37:56;;;;;;;6.25;3.38;;;11.60;81.10;;;;;;5073124;28;20126;-29
2024/03/28 12:40:26;;;;;;;5.78;3.05;;;11.60;81.20;;;;;;5073174;28;20032;-31
2024/03/28 12:42:55;;;;;;;10.68;3.10;;;11.60;80.20;;;;;;5073010;28;20659;-33
2024/03/28 12:45:21;;;;;;;3.65;2.75;;;11.60;80.40;;;;;;5073182;28;20024;-37
2024/03/28 12:47:48;;;;;;;4.10;2.95;;;11.70;80.80;;;;;;5073058;28;20028;-39
2024/03/28 12:50:17;;;;;;;5.95;3.33;;;11.80;80.80;;;;;;5072979;28;20029;-33
2024/03/28 12:52:46;;;;;;;4.22;2.65;;;11.90;81.00;;;;;;5073187;28;20052;-32
2024/03/28 12:55:12;;;;;;;2.95;2.40;;;11.90;80.90;;;;;;5072848;28;20058;-31
2024/03/28 12:57:38;;;;;;;2.42;2.03;;;12.00;80.50;;;;;;5073023;28;20024;-30
2024/03/28 13:00:04;;;;;;;5.18;2.40;;;12.00;80.60;;;;;;5072806;28;20491;-36